Time;durP1;ratioP1;P1;durP2;ratioP2;P2;SDS_P1;SDS_P2;PMS_P1;PMS_P2;Temp;Humidity;BMP_temperature;BMP_pressure;BME280_temperature;BME280_humidity;BME280_pressure;Samples;Min_cycle;Max_cycle;Signal;HPM_P1;HPM_P2
2023/06/05 00:00:08;;;;;;;0.70;0.70;;;;;;;6.80;70.89;99640.16;5088851;28;20534;-82
2023/06/05 00:02:39;;;;;;;0.70;0.70;;;;;;;6.84;70.75;99635.22;5089881;28;20040;-82
2023/06/05 00:05:08;;;;;;;0.63;0.63;;;;;;;6.91;70.31;99636.03;5088672;28;20040;-81
2023/06/05 00:07:37;;;;;;;0.60;0.60;;;;;;;6.85;70.36;99616.22;5090019;28;20059;-81
2023/06/05 00:10:13;;;;;;;0.60;0.60;;;;;;;6.97;70.19;99637.09;5089959;28;20048;-82
2023/06/05 00:12:44;;;;;;;0.70;0.70;;;;;;;6.95;70.28;99637.28;5088487;28;20048;-81
2023/06/05 00:15:12;;;;;;;0.60;0.60;;;;;;;6.93;70.35;99629.44;5089731;28;20106;-82
2023/06/05 00:17:39;;;;;;;0.60;0.60;;;;;;;6.95;70.20;99637.28;5090158;28;20082;-80
2023/06/05 00:20:09;;;;;;;0.60;0.60;;;;;;;6.99;70.41;99637.69;5088500;28;20040;-82
2023/06/05 00:22:38;;;;;;;0.60;0.60;;;;;;;7.04;70.18;99629.84;5089948;28;20502;-82
2023/06/05 00:25:08;;;;;;;0.60;0.60;;;;;;;7.06;70.31;99633.16;5089406;28;20403;-82
2023/06/05 00:27:36;;;;;;;0.60;0.60;;;;;;;7.02;70.39;99632.75;5091133;28;20093;-82
2023/06/05 00:30:03;;;;;;;0.60;0.60;;;;;;;7.00;70.23;99626.75;5090025;28;20063;-80
2023/06/05 00:32:30;;;;;;;0.60;0.60;;;;;;;7.03;70.25;99633.56;5092205;28;20490;-81
2023/06/05 00:34:58;;;;;;;0.60;0.60;;;;;;;6.98;70.27;99623.44;5091965;28;20052;-80
2023/06/05 00:37:26;;;;;;;0.60;0.60;;;;;;;6.98;70.03;99625.31;5093071;28;20082;-81
2023/06/05 00:39:56;;;;;;;0.65;0.65;;;;;;;7.00;70.08;99628.63;5092052;28;20119;-82
2023/06/05 00:42:23;;;;;;;0.70;0.70;;;;;;;6.81;70.39;99604.25;5091576;28;20044;-80
2023/06/05 00:44:50;;;;;;;0.60;0.60;;;;;;;7.00;70.21;99634.81;5093209;28;20138;-82
2023/06/05 00:47:20;;;;;;;0.60;0.60;;;;;;;7.08;70.41;99637.28;5092779;28;20458;-81
2023/06/05 00:49:48;;;;;;;0.60;0.60;;;;;;;7.11;70.37;99642.22;5093388;28;20131;-81
2023/06/05 00:52:15;;;;;;;0.60;0.60;;;;;;;7.10;70.39;99634.41;5091362;28;20537;-82
2023/06/05 00:54:43;;;;;;;0.60;0.60;;;;;;;7.06;70.17;99620.56;5092954;28;20048;-81
2023/06/05 00:57:13;;;;;;;0.60;0.60;;;;;;;7.11;70.14;99639.56;5074904;28;20421;-82
2023/06/05 00:59:44;;;;;;;0.60;0.60;;;;;;;7.10;70.05;99639.78;5091649;28;20498;-81
2023/06/05 01:02:12;;;;;;;0.60;0.60;;;;;;;7.08;70.25;99626.53;5092487;28;20051;-82
2023/06/05 01:04:43;;;;;;;0.60;0.60;;;;;;;7.07;70.08;99616.03;5091545;28;20055;-81
2023/06/05 01:07:11;;;;;;;0.60;0.60;;;;;;;7.18;69.96;99633.38;5093064;28;20130;-82
2023/06/05 01:09:38;;;;;;;0.70;0.70;;;;;;;7.22;69.77;99632.75;5074772;28;20138;-82
2023/06/05 01:12:16;;;;;;;0.70;0.70;;;;;;;7.23;69.86;99629.03;5091421;28;20052;-82
2023/06/05 01:14:45;;;;;;;0.70;0.70;;;;;;;7.29;69.95;99635.41;5074851;28;20140;-82
2023/06/05 01:17:13;;;;;;;0.60;0.60;;;;;;;7.20;69.86;99624.06;5092418;28;20123;-81
2023/06/05 01:19:40;;;;;;;0.60;0.60;;;;;;;7.21;70.13;99632.94;5091656;28;20040;-81
2023/06/05 01:22:08;;;;;;;0.60;0.60;;;;;;;7.21;70.23;99628.41;5091152;28;20562;-82
2023/06/05 01:24:40;;;;;;;0.60;0.60;;;;;;;7.14;70.24;99630.25;5092558;28;20044;-80
2023/06/05 01:27:15;;;;;;;0.60;0.60;;;;;;;7.21;70.20;99631.09;5093315;28;20054;-82
2023/06/05 01:33:01;;;;;;;0.60;0.60;;;;;;;7.13;70.27;99617.88;5090798;28;20048;-82
2023/06/05 01:35:33;;;;;;;0.60;0.60;;;;;;;7.16;70.34;99628.19;5090501;28;20047;-81
2023/06/05 01:38:02;;;;;;;0.60;0.60;;;;;;;7.15;70.29;99621.19;5092411;28;20457;-81
2023/06/05 01:40:30;;;;;;;0.60;0.60;;;;;;;7.19;70.26;99625.13;5074285;28;20048;-81
2023/06/05 01:43:00;;;;;;;0.60;0.60;;;;;;;7.25;70.28;99621.59;5074360;28;20170;-82
2023/06/05 01:45:27;;;;;;;0.70;0.70;;;;;;;7.30;70.10;99632.53;5090711;28;20417;-82
2023/06/05 01:47:56;;;;;;;0.60;0.60;;;;;;;7.34;70.00;99625.72;5092100;28;20497;-82
2023/06/05 01:50:24;;;;;;;0.60;0.60;;;;;;;7.31;70.16;99625.31;5073765;28;20454;-82
2023/06/05 01:52:55;;;;;;;0.60;0.60;;;;;;;7.41;70.00;99631.06;5090369;28;20054;-82
2023/06/05 01:55:28;;;;;;;0.60;0.60;;;;;;;7.40;70.07;99628.63;5090661;28;20058;-82
2023/06/05 01:57:55;;;;;;;0.60;0.60;;;;;;;7.52;69.83;99633.13;5091749;28;20048;-82
2023/06/05 02:00:22;;;;;;;0.60;0.60;;;;;;;7.56;69.56;99634.34;5090589;28;20056;-82
2023/06/05 02:02:50;;;;;;;0.60;0.60;;;;;;;7.54;69.59;99641.78;5073540;28;20080;-82
2023/06/05 02:05:19;;;;;;;0.60;0.60;;;;;;;7.55;69.35;99638.09;5091628;28;20051;-82
2023/06/05 02:07:53;;;;;;;0.60;0.60;;;;;;;7.56;69.19;99645.09;5090498;28;20051;-82
2023/06/05 02:10:25;;;;;;;0.68;0.68;;;;;;;7.57;68.85;99644.09;5090603;28;20162;-81
2023/06/05 02:12:54;;;;;;;0.60;0.60;;;;;;;7.60;68.78;99643.66;5090280;28;20127;-82
2023/06/05 02:15:22;;;;;;;0.60;0.60;;;;;;;7.65;69.01;99648.41;5091509;28;20135;-81
2023/06/05 02:17:56;;;;;;;0.60;0.60;;;;;;;7.69;68.90;99640.75;5090125;28;20054;-82
2023/06/05 02:20:27;;;;;;;;;;;;;;;7.73;68.29;99640.13;5090432;28;20117;-82
2023/06/05 02:22:54;;;;;;;0.60;0.60;;;;;;;7.73;68.61;99640.13;5090274;28;19951;-82
2023/06/05 02:25:25;;;;;;;0.60;0.60;;;;;;;7.74;68.59;99640.94;5092118;28;20267;-82
2023/06/05 02:27:54;;;;;;;0.65;0.65;;;;;;;7.79;68.45;99643.81;5091323;28;20063;-81
2023/06/05 02:30:22;;;;;;;0.60;0.60;;;;;;;7.82;68.56;99646.06;5091493;28;20127;-82
2023/06/05 02:33:00;;;;;;;0.70;0.70;;;;;;;7.84;68.35;99645.88;5090948;28;20105;-82
2023/06/05 02:35:29;;;;;;;0.60;0.60;;;;;;;7.91;68.67;99638.63;5086283;28;20044;-81
2023/06/05 02:37:57;;;;;;;0.60;0.60;;;;;;;7.97;68.36;99652.03;5086762;28;20653;-81
2023/06/05 02:40:24;;;;;;;0.60;0.60;;;;;;;7.99;68.35;99659.88;5084433;28;20489;-81
2023/06/05 02:42:55;;;;;;;0.60;0.60;;;;;;;7.99;68.36;99655.31;5073266;28;20047;-82
2023/06/05 02:45:27;;;;;;;0.60;0.60;;;;;;;7.95;68.38;99658.66;5090885;28;20055;-82
2023/06/05 02:47:57;;;;;;;0.55;0.55;;;;;;;7.97;68.26;99657.41;5090906;28;20052;-82
2023/06/05 02:50:32;;;;;;;;;;;;;;;8.02;68.44;99659.47;5090216;28;20137;-81
2023/06/05 02:53:06;;;;;;;0.60;0.60;;;;;;;8.03;68.68;99656.56;5089300;28;19977;-81
2023/06/05 02:55:37;;;;;;;0.60;0.60;;;;;;;8.08;68.59;99658.63;5089377;28;20054;-81
2023/06/05 02:58:12;;;;;;;0.60;0.60;;;;;;;8.02;68.66;99640.63;5089865;28;20060;-82
2023/06/05 03:00:50;;;;;;;0.60;0.60;;;;;;;8.25;68.49;99667.03;5090255;28;20132;-81
2023/06/05 03:03:20;;;;;;;0.60;0.60;;;;;;;8.27;68.00;99662.25;5089464;28;20463;-82
2023/06/05 03:05:49;;;;;;;0.60;0.60;;;;;;;8.30;68.23;99666.38;5090031;28;20047;-83
2023/06/05 03:08:17;;;;;;;0.60;0.60;;;;;;;8.29;68.40;99659.38;5089292;28;20060;-82
2023/06/05 03:10:46;;;;;;;0.60;0.60;;;;;;;8.32;68.51;99657.06;5089488;28;20074;-82
2023/06/05 03:13:13;;;;;;;0.60;0.60;;;;;;;8.30;68.39;99651.06;5090472;28;20101;-81
2023/06/05 03:15:44;;;;;;;0.60;0.60;;;;;;;8.34;68.40;99657.69;5089638;28;20422;-82
2023/06/05 03:18:15;;;;;;;0.63;0.63;;;;;;;8.45;68.74;99654.34;5089183;28;20044;-81
2023/06/05 03:20:43;;;;;;;0.70;0.70;;;;;;;8.56;68.55;99660.06;5089348;28;20063;-81
2023/06/05 03:23:11;;;;;;;0.70;0.70;;;;;;;8.65;67.87;99650.72;5073377;28;20460;-82
2023/06/05 03:25:41;;;;;;;0.60;0.60;;;;;;;8.66;67.80;99650.53;5090515;28;20052;-81
2023/06/05 03:28:08;;;;;;;0.60;0.60;;;;;;;8.75;67.76;99652.94;5090557;28;20098;-82
2023/06/05 03:30:36;;;;;;;0.60;0.60;;;;;;;8.75;68.05;99652.94;5089047;28;20043;-82
2023/06/05 03:33:06;;;;;;;0.60;0.60;;;;;;;8.68;68.17;99651.13;5088597;28;20147;-82
2023/06/05 03:35:35;;;;;;;0.60;0.60;;;;;;;8.67;68.40;99654.03;5089393;28;20058;-81
2023/06/05 03:38:05;;;;;;;0.60;0.60;;;;;;;8.80;68.56;99651.25;5088902;28;20050;-82
2023/06/05 03:40:33;;;;;;;0.63;0.63;;;;;;;8.91;68.23;99644.34;5088896;28;20456;-82
2023/06/05 03:43:01;;;;;;;0.60;0.60;;;;;;;9.01;67.89;99641.16;5089162;28;20506;-82
2023/06/05 03:45:33;;;;;;;0.57;0.57;;;;;;;9.13;67.82;99650.19;5088940;28;20075;-83
2023/06/05 03:48:06;;;;;;;0.70;0.70;;;;;;;9.18;67.78;99644.97;5089182;28;20059;-82
2023/06/05 03:50:41;;;;;;;0.60;0.60;;;;;;;9.16;67.67;99638.16;5087386;28;20339;-80
2023/06/05 03:53:13;;;;;;;0.60;0.60;;;;;;;9.22;67.70;99631.91;5091082;28;20040;-81
2023/06/05 03:55:41;;;;;;;0.70;0.70;;;;;;;9.33;67.20;99639.25;5078631;28;20048;-81
2023/06/05 03:58:23;;;;;;;0.60;0.60;;;;;;;9.28;66.46;99621.06;5080520;28;20067;-81
2023/06/05 04:00:53;;;;;;;0.70;0.70;;;;;;;9.55;65.97;99642.38;5063897;28;20418;-81
2023/06/05 04:03:21;;;;;;;0.60;0.60;;;;;;;9.57;65.73;99642.97;5089767;28;20134;-81
2023/06/05 04:05:52;;;;;;;0.63;0.63;;;;;;;9.63;65.54;99625.09;5089569;28;20078;-82
2023/06/05 04:08:19;;;;;;;0.60;0.60;;;;;;;9.73;65.40;99633.47;5084098;28;20130;-80
2023/06/05 04:10:46;;;;;;;0.60;0.60;;;;;;;9.72;65.53;99632.66;5084277;28;20079;-80
2023/06/05 04:13:14;;;;;;;0.60;0.60;;;;;;;9.72;65.79;99640.75;5071975;28;20060;-81
2023/06/05 04:15:44;;;;;;;0.60;0.60;;;;;;;9.69;65.72;99641.19;5070078;28;20048;-81
2023/06/05 04:18:11;;;;;;;0.60;0.60;;;;;;;9.66;66.42;99638.94;5074057;28;20052;-80
2023/06/05 04:20:39;;;;;;;0.60;0.60;;;;;;;9.80;66.58;99652.25;5088298;28;20067;-81
2023/06/05 04:23:07;;;;;;;0.60;0.60;;;;;;;9.82;66.51;99631.31;5077987;28;20074;-81
2023/06/05 04:25:40;;;;;;;0.60;0.60;;;;;;;9.82;66.90;99645.59;5078428;28;20068;-83
2023/06/05 04:28:07;;;;;;;0.60;0.60;;;;;;;9.64;67.57;99653.69;5087990;28;20080;-82
2023/06/05 04:30:34;;;;;;;0.60;0.60;;;;;;;9.49;67.97;99654.03;5090821;28;20138;-81
2023/06/05 04:33:02;;;;;;;0.50;0.50;;;;;;;9.38;68.76;99655.56;5092963;28;20074;-82
2023/06/05 04:35:32;;;;;;;0.50;0.50;;;;;;;9.38;69.14;99652.88;5090200;28;20052;-81
2023/06/05 04:38:00;;;;;;;0.60;0.60;;;;;;;9.42;69.26;99658.63;5096306;28;20078;-82
2023/06/05 04:40:31;;;;;;;0.50;0.50;;;;;;;9.43;69.63;99650.34;4739896;28;10000510;-83
2023/06/05 04:42:58;;;;;;;0.60;0.60;;;;;;;9.64;69.41;99656.38;5076801;28;20048;-83
2023/06/05 04:45:25;;;;;;;0.60;0.60;;;;;;;9.80;68.96;99644.19;5075884;28;20067;-82
2023/06/05 04:47:53;;;;;;;0.60;0.60;;;;;;;10.19;67.90;99634.81;5086290;28;20090;-82
2023/06/05 04:50:25;;;;;;;0.60;0.60;;;;;;;10.55;66.65;99635.81;5088617;28;20062;-82
2023/06/05 04:52:59;;;;;;;0.60;0.60;;;;;;;10.76;65.79;99638.03;5087833;28;20051;-81
2023/06/05 04:55:27;;;;;;;0.60;0.60;;;;;;;10.84;64.95;99644.97;5080646;28;20044;-82
2023/06/05 04:58:00;;;;;;;0.60;0.60;;;;;;;10.91;64.56;99634.88;5091569;28;20051;-81
2023/06/05 05:00:31;;;;;;;0.60;0.60;;;;;;;11.08;64.35;99635.03;5094588;28;20040;-83
2023/06/05 05:03:03;;;;;;;0.60;0.60;;;;;;;11.24;63.94;99639.78;5102288;28;20522;-80
2023/06/05 05:05:34;;;;;;;0.70;0.70;;;;;;;11.38;62.96;99639.53;5090295;28;20127;-82
2023/06/05 05:08:04;;;;;;;0.70;0.70;;;;;;;11.35;63.53;99634.63;5080153;28;20060;-81
2023/06/05 05:10:32;;;;;;;0.60;0.60;;;;;;;11.70;63.45;99640.84;5090076;28;20048;-82
2023/06/05 05:13:02;;;;;;;0.60;0.60;;;;;;;11.70;61.27;99634.59;5087646;28;20051;-81
2023/06/05 05:15:31;;;;;;;0.60;0.60;;;;;;;11.75;61.81;99640.13;5091951;28;20039;-83
2023/06/05 05:18:03;;;;;;;0.60;0.60;;;;;;;12.04;61.62;99642.94;5074324;28;20131;-81
2023/06/05 05:20:34;;;;;;;0.60;0.60;;;;;;;12.30;60.96;99641.56;5075364;28;20463;-82
2023/06/05 05:23:27;;;;;;;0.52;0.52;;;;;;;12.16;60.07;99635.63;5072447;28;20048;-86
2023/06/05 05:25:54;;;;;;;0.60;0.60;;;;;;;12.06;60.74;99641.63;5090022;28;20063;-83
2023/06/05 05:28:22;;;;;;;0.60;0.60;;;;;;;12.22;60.89;99650.88;5090888;28;20048;-83
2023/06/05 05:30:49;;;;;;;0.60;0.60;;;;;;;12.36;60.67;99654.16;5091149;28;20044;-84
2023/06/05 05:33:17;;;;;;;0.60;0.60;;;;;;;12.51;60.09;99649.03;5090681;28;20056;-84
2023/06/05 05:35:45;;;;;;;0.60;0.60;;;;;;;12.61;60.16;99643.00;5087556;28;20388;-82
2023/06/05 05:38:12;;;;;;;0.60;0.60;;;;;;;12.43;60.09;99651.28;5087571;28;20125;-84
2023/06/05 05:40:40;;;;;;;0.60;0.60;;;;;;;12.36;60.86;99652.25;5070433;28;20052;-83
2023/06/05 05:43:07;;;;;;;0.60;0.60;;;;;;;12.48;61.04;99654.94;5071667;28;20059;-83
2023/06/05 05:45:42;;;;;;;0.60;0.60;;;;;;;12.57;61.21;99645.34;5070672;28;20387;-83
2023/06/05 05:48:09;;;;;;;0.60;0.60;;;;;;;12.75;60.37;99657.03;5087868;28;20107;-83
2023/06/05 05:50:37;;;;;;;0.60;0.60;;;;;;;12.79;60.14;99652.81;5091518;28;20139;-84
2023/06/05 05:53:07;;;;;;;0.60;0.60;;;;;;;12.74;60.03;99645.41;5090577;28;20503;-82
2023/06/05 05:55:36;;;;;;;0.60;0.60;;;;;;;12.83;60.08;99656.66;5091818;28;20398;-81
2023/06/05 05:58:04;;;;;;;0.60;0.60;;;;;;;12.95;60.11;99654.69;5091948;28;20052;-82
2023/06/05 06:00:31;;;;;;;0.60;0.60;;;;;;;12.55;60.48;99654.78;5091521;28;20124;-83
2023/06/05 06:02:58;;;;;;;0.50;0.50;;;;;;;12.44;60.77;99655.66;5091263;28;20048;-83
2023/06/05 06:05:26;;;;;;;0.60;0.60;;;;;;;12.52;60.79;99663.38;5089993;28;20539;-83
2023/06/05 06:07:53;;;;;;;0.50;0.50;;;;;;;12.50;60.16;99639.25;5073864;28;20052;-83
2023/06/05 06:10:21;;;;;;;0.60;0.60;;;;;;;12.46;59.98;99657.06;5091504;28;20048;-85
2023/06/05 06:12:49;;;;;;;0.60;0.60;;;;;;;12.45;60.43;99654.56;5073697;28;20501;-83
2023/06/05 06:15:17;;;;;;;0.60;0.60;;;;;;;12.66;60.15;99659.34;5091464;28;20415;-83
2023/06/05 06:17:45;;;;;;;0.50;0.50;;;;;;;12.76;59.56;99653.25;5091751;28;20064;-81
2023/06/05 06:20:13;;;;;;;0.50;0.50;;;;;;;12.58;60.15;99648.88;5091356;28;20143;-83
2023/06/05 06:22:40;;;;;;;0.50;0.50;;;;;;;12.51;60.64;99659.06;5088288;28;20135;-83
2023/06/05 06:25:10;;;;;;;0.50;0.50;;;;;;;12.44;61.02;99664.59;5091346;28;20080;-84
2023/06/05 06:27:38;;;;;;;0.50;0.50;;;;;;;12.48;61.31;99660.34;5089333;28;20510;-83
2023/06/05 06:30:05;;;;;;;0.50;0.50;;;;;;;12.32;62.06;99666.50;5091110;28;20134;-82
2023/06/05 06:32:33;;;;;;;0.50;0.50;;;;;;;12.13;62.53;99658.56;5089731;28;20048;-85
2023/06/05 06:35:00;;;;;;;0.50;0.50;;;;;;;12.06;63.00;99657.88;5090655;28;20453;-84
2023/06/05 06:37:30;;;;;;;0.50;0.50;;;;;;;12.01;63.98;99655.06;5069314;28;20048;-84
2023/06/05 06:39:58;;;;;;;0.50;0.50;;;;;;;12.09;63.47;99656.56;5069585;28;20044;-84
2023/06/05 06:42:28;;;;;;;0.50;0.50;;;;;;;12.15;63.69;99655.59;5070832;28;20460;-85
2023/06/05 06:45:09;;;;;;;0.60;0.60;;;;;;;12.40;63.32;99670.72;5086351;28;20052;-84
2023/06/05 06:47:37;;;;;;;0.60;0.60;;;;;;;12.64;63.05;99644.41;5068988;28;20048;-83
2023/06/05 06:50:04;;;;;;;0.60;0.60;;;;;;;12.94;62.55;99658.50;5069274;28;20041;-83
2023/06/05 06:52:31;;;;;;;0.50;0.50;;;;;;;13.11;62.01;99646.84;5059562;28;20040;-83
2023/06/05 06:55:04;;;;;;;0.60;0.60;;;;;;;12.91;61.68;99650.84;5087250;28;20052;-82
2023/06/05 06:57:32;;;;;;;0.60;0.60;;;;;;;12.73;62.13;99642.91;5086793;28;20105;-82
2023/06/05 06:59:59;;;;;;;0.50;0.50;;;;;;;13.14;61.94;99639.06;5097052;28;20051;-82
2023/06/05 07:02:30;;;;;;;0.50;0.50;;;;;;;13.51;61.94;99643.16;5109343;28;20074;-82
2023/06/05 07:04:58;;;;;;;0.50;0.50;;;;;;;13.39;62.20;99649.53;5111002;28;20051;-81
2023/06/05 07:07:27;;;;;;;0.50;0.50;;;;;;;13.24;61.30;99638.38;5110528;28;20146;-82
2023/06/05 07:09:57;;;;;;;0.60;0.60;;;;;;;13.08;61.19;99647.34;5110704;28;20051;-82
2023/06/05 07:12:25;;;;;;;0.60;0.60;;;;;;;13.15;61.05;99621.72;5109364;28;20082;-82
2023/06/05 07:14:55;;;;;;;0.50;0.50;;;;;;;13.39;59.78;99644.09;5080211;28;20040;-81
2023/06/05 07:17:28;;;;;;;0.50;0.50;;;;;;;13.20;59.77;99618.28;5082735;28;20082;-81
2023/06/05 07:19:57;;;;;;;0.50;0.50;;;;;;;13.30;59.82;99634.72;5090395;28;20082;-82
2023/06/05 07:22:27;;;;;;;0.50;0.50;;;;;;;13.46;59.97;99654.75;5090018;28;20090;-82
2023/06/05 07:24:55;;;;;;;0.50;0.50;;;;;;;13.20;59.74;99650.78;5090649;28;20080;-81
2023/06/05 07:27:22;;;;;;;0.50;0.50;;;;;;;13.10;59.77;99635.19;5088282;28;20480;-81
2023/06/05 07:29:53;;;;;;;0.60;0.60;;;;;;;13.02;60.42;99631.00;5079299;28;20094;-82
2023/06/05 07:32:20;;;;;;;0.60;0.60;;;;;;;13.17;59.75;99635.84;5077915;28;20044;-83
2023/06/05 07:34:48;;;;;;;0.50;0.50;;;;;;;13.17;60.19;99630.44;5069376;28;20048;-81
2023/06/05 07:37:15;;;;;;;0.60;0.60;;;;;;;13.47;59.21;99647.44;5080824;28;20147;-80
2023/06/05 07:39:42;;;;;;;0.50;0.50;;;;;;;13.72;58.26;99642.38;5085211;28;20052;-80
2023/06/05 07:42:10;;;;;;;0.60;0.60;;;;;;;14.05;56.84;99643.38;5083154;28;20080;-79
2023/06/05 07:44:37;;;;;;;0.60;0.60;;;;;;;14.30;56.44;99632.00;5091063;28;20048;-81
2023/06/05 07:47:10;;;;;;;0.50;0.50;;;;;;;14.53;56.08;99628.22;5084750;28;20110;-80
2023/06/05 07:49:37;;;;;;;0.73;0.73;;;;;;;15.03;54.90;99634.44;5082025;28;20052;-81
2023/06/05 07:52:05;;;;;;;0.50;0.50;;;;;;;15.22;53.88;99626.69;5095601;28;20049;-79
2023/06/05 07:54:32;;;;;;;0.70;0.70;;;;;;;15.50;52.77;99631.81;5085184;28;20040;-81
2023/06/05 07:57:07;;;;;;;0.70;0.70;;;;;;;15.52;51.50;99642.41;5101375;28;20075;-81
2023/06/05 07:59:35;;;;;;;0.70;0.70;;;;;;;15.39;52.26;99632.81;5085486;28;20091;-83
2023/06/05 08:02:02;;;;;;;0.80;0.80;;;;;;;15.57;51.31;99632.41;5088787;28;20155;-82
2023/06/05 08:04:29;;;;;;;0.70;0.70;;;;;;;15.94;51.42;99637.00;5092442;28;20040;-82
2023/06/05 08:06:57;;;;;;;0.70;0.70;;;;;;;16.38;49.63;99636.66;5083161;28;20059;-81
2023/06/05 08:09:24;;;;;;;0.60;0.60;;;;;;;16.39;49.57;99630.09;5081163;28;20090;-81
2023/06/05 08:11:51;;;;;;;0.60;0.60;;;;;;;16.06;50.41;99609.56;5088591;28;20068;-80
2023/06/05 08:14:18;;;;;;;0.50;0.50;;;;;;;16.28;50.20;99614.84;5082730;28;20044;-80
2023/06/05 08:16:46;;;;;;;0.70;0.70;;;;;;;16.62;48.28;99622.53;5095358;28;20491;-81
2023/06/05 08:19:13;;;;;;;0.60;0.60;;;;;;;16.97;46.84;99610.91;5091291;28;20101;-80
2023/06/05 08:21:42;;;;;;;0.50;0.50;;;;;;;17.08;46.96;99612.53;5103182;28;20115;-79
2023/06/05 08:24:10;;;;;;;0.60;0.60;;;;;;;17.05;46.58;99621.25;5070768;28;20469;-80
2023/06/05 08:26:38;;;;;;;0.50;0.50;;;;;;;16.97;46.96;99613.63;5077557;28;20052;-80
2023/06/05 08:29:05;;;;;;;0.40;0.40;;;;;;;16.52;47.75;99598.00;5082671;28;20048;-80
2023/06/05 08:31:34;;;;;;;0.45;0.45;;;;;;;15.97;47.89;99616.59;5095823;28;20146;-79
2023/06/05 08:34:02;;;;;;;0.50;0.50;;;;;;;15.68;49.37;99602.53;5109898;28;20134;-78
2023/06/05 08:36:32;;;;;;;0.47;0.47;;;;;;;15.93;48.58;99626.38;5084082;28;20621;-80
2023/06/05 08:39:00;;;;;;;0.50;0.50;;;;;;;15.64;48.71;99613.13;5082396;28;20059;-79
2023/06/05 08:41:30;;;;;;;0.60;0.60;;;;;;;15.85;48.93;99607.81;5091087;27;20734;-81
2023/06/05 08:43:58;;;;;;;0.50;0.50;;;;;;;16.09;48.68;99597.31;5092796;28;20113;-81
2023/06/05 08:46:28;;;;;;;0.50;0.50;;;;;;;16.23;48.50;99602.00;5091604;28;20147;-80
2023/06/05 08:48:56;;;;;;;0.50;0.50;;;;;;;16.28;47.88;99595.78;5091578;28;20054;-80
2023/06/05 08:51:42;;;;;;;0.50;0.50;;;;;;;16.30;47.67;99595.47;5090558;28;20048;-79
2023/06/05 08:54:12;;;;;;;0.68;0.68;;;;;;;16.52;47.79;99590.63;5092804;28;20051;-80
2023/06/05 08:56:42;;;;;;;0.60;0.60;;;;;;;16.87;46.34;99592.63;5092607;28;20048;-80
2023/06/05 08:59:14;;;;;;;0.55;0.55;;;;;;;16.90;46.70;99607.63;5092443;28;20105;-80
2023/06/05 09:01:46;;;;;;;0.45;0.45;;;;;;;16.74;46.81;99592.31;5092542;28;20139;-80
2023/06/05 09:04:14;;;;;;;0.40;0.40;;;;;;;16.37;46.87;99594.13;5091400;28;20051;-79
2023/06/05 09:06:47;;;;;;;0.50;0.50;;;;;;;16.02;47.52;99598.38;5091271;28;20064;-80
2023/06/05 09:09:22;;;;;;;0.40;0.40;;;;;;;15.88;47.64;99605.41;5092519;28;20048;-80
2023/06/05 09:12:05;;;;;;;0.40;0.40;;;;;;;15.78;48.18;99586.31;5091455;28;20048;-80
2023/06/05 09:14:35;;;;;;;0.50;0.50;;;;;;;15.52;48.43;99588.00;5092264;28;20047;-81
2023/06/05 09:17:03;;;;;;;0.50;0.50;;;;;;;15.45;48.68;99582.81;5091881;28;20538;-80
2023/06/05 09:19:38;;;;;;;0.47;0.47;;;;;;;15.55;49.06;99577.44;5092169;28;20077;-79
2023/06/05 09:22:07;;;;;;;0.90;0.90;;;;;;;17.06;44.80;99570.25;5092244;28;20048;-80
2023/06/05 09:24:35;;;;;;;0.90;0.90;;;;;;;17.77;42.82;99567.41;5073821;28;20406;-80
2023/06/05 09:27:08;;;;;;;0.80;0.80;;;;;;;18.45;41.69;99570.66;5091113;28;20043;-80
2023/06/05 09:29:38;;;;;;;0.90;0.90;;;;;;;18.86;40.67;99560.28;5074692;28;20113;-80
2023/06/05 09:32:07;;;;;;;0.90;0.90;;;;;;;19.17;39.60;99546.38;5092042;28;20055;-81
2023/06/05 09:34:36;;;;;;;0.65;0.65;;;;;;;19.59;39.22;99567.53;5091896;28;20056;-80
2023/06/05 09:37:05;;;;;;;0.60;0.60;;;;;;;18.96;41.11;99568.41;5091012;28;20151;-80
2023/06/05 09:39:34;;;;;;;0.80;0.80;;;;;;;19.34;40.47;99554.13;5091567;28;20050;-80
2023/06/05 09:42:05;;;;;;;0.40;0.40;;;;;;;19.00;40.28;99547.59;5090726;28;20048;-81
2023/06/05 09:44:33;;;;;;;0.40;0.40;;;;;;;17.81;42.75;99548.59;5091659;28;20055;-80
2023/06/05 09:47:11;;;;;;;0.40;0.40;;;;;;;17.28;43.59;99548.16;5091865;28;20044;-81
2023/06/05 09:49:41;;;;;;;0.40;0.40;;;;;;;16.68;44.29;99566.94;5074729;28;20044;-81
2023/06/05 09:52:11;;;;;;;0.45;0.45;;;;;;;16.57;45.21;99554.41;5091696;28;20071;-79
2023/06/05 09:54:41;;;;;;;0.50;0.50;;;;;;;16.45;44.80;99552.75;5090424;28;20044;-80
2023/06/05 09:57:12;;;;;;;0.50;0.50;;;;;;;16.55;44.94;99562.03;5089322;28;20040;-79
2023/06/05 09:59:53;;;;;;;0.50;0.50;;;;;;;16.60;45.27;99542.97;5091979;28;20518;-80
2023/06/05 10:02:25;;;;;;;0.50;0.50;;;;;;;16.81;45.41;99577.38;5091036;28;20062;-78
2023/06/05 10:05:03;;;;;;;0.50;0.50;;;;;;;16.97;44.68;99547.38;5089349;28;20063;-82
2023/06/05 10:07:36;;;;;;;0.77;0.77;;;;;;;17.19;43.57;99556.09;5088708;28;20075;-81
2023/06/05 10:10:09;;;;;;;0.50;0.50;;;;;;;17.96;42.56;99553.16;4734093;28;10000198;-80
2023/06/05 10:12:42;;;;;;;0.50;0.50;;;;;;;17.89;42.65;99525.34;5071921;28;20052;-83
2023/06/05 10:15:11;;;;;;;0.40;0.40;;;;;;;17.32;44.24;99555.53;5088032;28;20498;-80
2023/06/05 10:17:41;;;;;;;0.50;0.50;;;;;;;16.64;46.30;99554.97;5082748;28;20094;-80
2023/06/05 10:20:10;;;;;;;0.40;0.40;;;;;;;16.35;47.17;99565.53;5075594;28;20062;-81
2023/06/05 10:22:41;;;;;;;0.50;0.50;;;;;;;15.71;49.75;99564.75;5085517;28;20052;-81
2023/06/05 10:25:11;;;;;;;0.50;0.50;;;;;;;15.20;49.98;99539.16;5079227;28;20063;-80
2023/06/05 10:28:41;;;;;;;0.40;0.40;;;;;;;15.47;50.09;99556.19;5074445;28;20135;-80
2023/06/05 10:31:20;;;;;;;0.50;0.50;;;;;;;15.50;47.74;99557.56;5024339;28;20062;-78
2023/06/05 10:34:04;;;;;;;0.57;0.57;;;;;;;15.41;49.00;99551.78;5023910;28;20444;-79
2023/06/05 10:36:59;;;;;;;0.60;0.60;;;;;;;15.95;47.72;99548.81;5037041;28;20143;-80
2023/06/05 10:39:29;;;;;;;0.50;0.50;;;;;;;16.03;46.43;99550.22;5008227;28;20084;-80
2023/06/05 10:41:57;;;;;;;1.00;1.00;;;;;;;17.81;43.34;99540.41;5024729;28;20045;-80
2023/06/05 10:44:42;;;;;;;1.00;1.00;;;;;;;18.72;41.23;99548.34;5024654;28;20416;-81
2023/06/05 10:47:37;;;;;;;1.00;1.00;;;;;;;19.60;40.47;99549.22;5026970;28;20064;-79
2023/06/05 10:50:27;;;;;;;1.00;1.00;;;;;;;20.56;37.03;99532.66;5020506;28;20162;-82
2023/06/05 10:53:46;;;;;;;0.90;0.90;;;;;;;20.63;37.13;99524.03;5025913;28;20053;-81
2023/06/05 10:56:56;;;;;;;0.90;0.90;;;;;;;21.49;35.80;99538.19;5027737;28;20135;-80
2023/06/05 10:59:34;;;;;;;0.90;0.90;;;;;;;21.78;35.22;99526.13;5030036;28;20168;-78
2023/06/05 11:02:16;;;;;;;0.50;0.50;;;;;;;20.96;36.45;99511.97;5033855;28;20052;-78
2023/06/05 11:04:47;;;;;;;1.10;1.10;;;;;;;22.40;34.93;99525.59;5025652;28;20053;-79
2023/06/05 11:07:35;;;;;;;0.60;0.60;;;;;;;22.82;33.74;99509.75;5050047;28;20067;-79
2023/06/05 11:10:35;;;;;;;0.40;0.40;;;;;;;21.75;35.85;99518.47;5072842;28;20159;-80
2023/06/05 11:13:03;;;;;;;0.30;0.30;;;;;;;20.13;38.01;99514.31;5075820;28;20051;-80
2023/06/05 11:15:36;;;;;;;0.30;0.30;;;;;;;18.76;39.98;99511.16;5085538;28;20054;-79
2023/06/05 11:18:26;;;;;;;0.35;0.35;;;;;;;17.87;42.26;99505.69;5076494;28;20446;-79
2023/06/05 11:20:53;;;;;;;0.40;0.40;;;;;;;18.04;42.45;99511.63;5062391;28;20072;-79
2023/06/05 11:23:21;;;;;;;0.40;0.40;;;;;;;18.21;42.64;99502.25;5070597;28;20047;-79
2023/06/05 11:25:50;;;;;;;0.80;0.80;;;;;;;18.51;42.32;99506.66;5082096;28;20124;-79
2023/06/05 11:28:38;;;;;;;0.40;0.40;;;;;;;18.71;42.04;99502.97;5078090;28;20048;-80
2023/06/05 11:31:05;;;;;;;0.40;0.40;;;;;;;18.36;42.73;99502.16;5079018;28;20071;-81
2023/06/05 11:33:33;;;;;;;0.40;0.40;;;;;;;18.46;42.79;99512.16;5089009;28;20496;-80
2023/06/05 11:36:05;;;;;;;0.40;0.40;;;;;;;18.59;43.23;99512.34;5087185;28;20105;-79
2023/06/05 11:38:34;;;;;;;0.40;0.40;;;;;;;18.39;44.24;99507.03;5077933;28;20048;-80
2023/06/05 11:41:08;;;;;;;0.63;0.63;;;;;;;20.64;41.00;99492.78;5082577;28;20109;-80
2023/06/05 11:43:43;;;;;;;0.40;0.40;;;;;;;20.49;41.49;99485.56;5094126;28;20060;-80
2023/06/05 11:46:11;;;;;;;0.30;0.30;;;;;;;19.91;42.59;99503.94;5086132;28;20048;-80
2023/06/05 11:48:45;;;;;;;1.00;1.00;;;;;;;20.25;42.82;99502.91;5073438;28;20147;-80
2023/06/05 11:51:13;;;;;;;0.40;0.40;;;;;;;21.78;38.97;99515.13;5079949;28;20142;-80
2023/06/05 11:53:47;;;;;;;0.90;0.90;;;;;;;23.04;35.75;99508.94;5082911;28;20059;-80
2023/06/05 11:56:18;;;;;;;0.90;0.90;;;;;;;23.24;35.41;99508.38;5083320;28;20494;-80